Weather at Manchester Airport

Public forecast

Using degrees Celsius for public forecast. Weather courtesy of forecast.io.

Current aviation weather report (METAR) for Manchester Airport

Report is more than 6 hours old.

2022/11/14 15:20 (retrieved 2 years ago)

EGCC 141520Z 13004KT 090V180 9999 FEW014 BKN018 12/10 Q1005 TEMPO BKN012

Aviation forecast (TAF) for Manchester Airport

Forecast is more than 12 hours old.

2023/02/22 18:00 (retrieved 1 year ago)

TAF EGCC 221655Z 2218/2324 33008KT 9999 SCT025 PROB30 TEMPO 2218/2306 35015G25KT PROB30 TEMPO 2218/2303 6000 SHRA BKN014